Aérodrome :
LOGIN :

S'inscrire | Disclaimer

   EN    FR    IT 

 










Légende :    VFR   VFR Marginal   IFR   IFR Intensif   IFR Très Intensif
Visi : 
Plafond : 
>= 8 km
>= 3000ft
5 à 8 km
1000 à 3000 ft
1500m à 5 km
500 à 1000 ft
800 à 1500m
200 à 500 ft
< 800m
< 200 ft
Symboles :   Orages  Brouillard  Fortes neiges  Fortes précipitations  Vent > 20 kt
SIGMETs :   Divers  Orages  Givrage  Turbulence  Onde Orograph.  Cendres Volcan.






- Altitude de l'aérodrome : 308 ft
- Code IATA : MHG


EDFM - Mannheim-City

DERNIER METAR :
  • 121750Z 16008KT 9999 FEW016 OVC040 05/02 Q0999

METARs EXPIRÉS :
  • 121720Z 14005KT 9999 FEW035 OVC045 04/02 Q1000
  • 121650Z 15004KT 130V190 9999 FEW032 BKN044 04/02 Q1001
  • 121620Z 16005KT 9999 FEW016 OVC046 05/02 Q1001
  • 121550Z 18005KT 9999 FEW016 OVC045 05/02 Q1001
  • 121520Z 18005KT 150V210 9999 FEW018 OVC043 05/02 Q1002

TAF TAF EDFM
Valide du 12 à 18h jusqu'au 12 à 21h UTC


121700Z 1218/1221 15006KT 9999 FEW030 SCT045



MET'MAP, la Météo Aéronautique d'un coup d'oeil ! - Copyright ORBIFLY Décembre 2007 - Disclaimer

ORBIFLY MET'MAP TEAM :

Programmation & Développement : Alexandra Zaïnal
Sur une idée originale de : Baudouin d'Aumeries
Assistance à la programmation : Marc-Olivier Méhu
Soutien technique & logistique : Manuel Goepfert

Contact : metmap@orbifly.com




SOURCES & CREDITS :

   NOAA